Singer Island, Florida
Current Conditions -  °F | °C
As of 5:53 AM on Tuesday 21 Oct 2014 (Local Time) from KPBI Reporting Station
Overcast Overcast  
Wind Chill: 24°   Ceiling: 25000
Heat Index: 24°   Visibility: 10mi
Dew Point: 21°   Wind: 0mph
Humidity: 84%   Direction: NA
Pressure: 29.92"   Gusts: NA
Location:  26.7789°N, 80.0745°W
Report Text: KPBI 210953Z 00000KT 10SM FEW050 OVC250 24/21 A2992 RMK AO2 SLP130 T02390211
Loading
Personal Weather Stations






























Interactive Weather Map
Tropical Storm Tracking
New forecast layout! Learn more

10-Day Weather Forecast

Advertisements
Track Severe Weather on mobile